Main page
METAR-TAF:

METAR-TAF

Airports :

Kangerlussuaq Airport

Kangerlussuaq, Greenland

latitude: 67-01N, longitude: 050-42W, elevation: 50 m

Current weather observation

The report was made 52 minutes ago, at 16:50 UTC
Wind 9 kt from the East, varying between East/Northeast and Southeast
Temperature 21°C
Humidity 25%
Pressure 1013 hPa
Visibility 10 km or more

METAR: BGSF 171650Z AUTO 09009KT 060V140 9999NDV NCD 21/M00 Q1013

Time: 15:42 (17:42 UTC)

Forecast

The report was made 47 minutes ago, at 16:55 UTC
Forecast valid from 17 at 18 UTC to 17 at 23 UTC
Wind 8 kt from the East
Visibility 10 km or more
Few clouds at a height of 18000 ft

TAF: BGSF 171655Z 1718/1723 08008KT 9999 FEW180

Weather observations and forecasts of more than 4000 airports (METAR and TAF reports).

The available stations are represented by yellow and red dots on the map.

Hover mouse over dot to see the name of the station.

Then click to see weather observations and forecasts.

To change the map : click on the green buttons with a black cross to zoom in, on the green button with a dash to zoom out, or on the green arrows for adjacent maps.


METAR-TAF: